Time;durP1;ratioP1;P1;durP2;ratioP2;P2;SDS_P1;SDS_P2;PMS_P1;PMS_P2;Temp;Humidity;BMP_temperature;BMP_pressure;BME280_temperature;BME280_humidity;BME280_pressure;Samples;Min_cycle;Max_cycle;Signal;HPM_P1;HPM_P2
2021/08/05 00:02:09;;;;;;;3.10;2.20;;;20.50;70.40;;;;;;5092493;28;20137;-70
2021/08/05 00:04:35;;;;;;;3.00;2.00;;;20.50;70.40;;;;;;5090891;28;20070;-69
2021/08/05 00:07:00;;;;;;;3.90;2.10;;;20.40;70.40;;;;;;5083404;28;20028;-69
2021/08/05 00:09:26;;;;;;;3.17;2.20;;;20.40;70.50;;;;;;5092162;28;20059;-69
2021/08/05 00:11:52;;;;;;;3.85;2.20;;;20.40;70.70;;;;;;5090561;28;20077;-68
2021/08/05 00:14:17;;;;;;;3.05;1.83;;;20.30;70.80;;;;;;5086145;28;20040;-69
2021/08/05 00:16:43;;;;;;;4.85;2.17;;;20.40;71.10;;;;;;5091593;28;20024;-69
2021/08/05 00:19:09;;;;;;;5.57;2.20;;;20.30;71.10;;;;;;5091766;28;20024;-69
2021/08/05 00:21:34;;;;;;;4.38;2.38;;;20.30;71.30;;;;;;5091497;28;20032;-69
2021/08/05 00:24:00;;;;;;;3.92;2.00;;;20.20;71.40;;;;;;5082101;28;20016;-69
2021/08/05 00:26:26;;;;;;;3.50;1.90;;;20.30;71.50;;;;;;5090561;28;20471;-69
2021/08/05 00:28:52;;;;;;;2.47;1.80;;;20.30;71.60;;;;;;5085078;28;20062;-69
2021/08/05 00:31:18;;;;;;;4.72;1.90;;;20.20;71.70;;;;;;5089044;28;20104;-69
2021/08/05 00:33:44;;;;;;;2.85;2.00;;;20.20;71.80;;;;;;5086427;28;20038;-69
2021/08/05 00:36:10;;;;;;;3.38;2.05;;;20.20;71.90;;;;;;5087359;28;20438;-69
2021/08/05 00:38:37;;;;;;;7.88;2.50;;;20.20;72.00;;;;;;5089604;28;20028;-70
2021/08/05 00:41:02;;;;;;;3.67;1.80;;;20.20;72.10;;;;;;5075173;28;20031;-69
2021/08/05 00:43:28;;;;;;;4.07;1.80;;;20.20;71.60;;;;;;5088222;28;20109;-69
2021/08/05 00:45:54;;;;;;;5.30;2.05;;;20.10;71.20;;;;;;5080317;28;20032;-69
2021/08/05 00:48:20;;;;;;;4.38;2.35;;;20.10;71.20;;;;;;5090740;28;20050;-69
2021/08/05 00:50:48;;;;;;;6.35;2.55;;;20.10;71.40;;;;;;5089899;28;20530;-70
2021/08/05 00:53:17;;;;;;;3.08;2.13;;;20.10;71.60;;;;;;5090316;28;20020;-69
2021/08/05 00:55:45;;;;;;;6.78;2.53;;;20.10;71.70;;;;;;5089573;28;20028;-69
2021/08/05 00:58:14;;;;;;;6.30;2.58;;;20.10;71.90;;;;;;5090315;28;20028;-69
2021/08/05 01:00:44;;;;;;;6.72;2.80;;;20.10;71.90;;;;;;5090569;28;20021;-69
2021/08/05 01:03:19;;;;;;;4.25;2.70;;;20.10;72.00;;;;;;5090838;28;20119;-69
2021/08/05 01:05:53;;;;;;;4.35;2.60;;;20.00;72.00;;;;;;5081663;28;20032;-69
2021/08/05 01:08:23;;;;;;;;;;;20.00;72.20;;;;;;5093885;28;20024;-69
2021/08/05 01:11:01;;;;;;;4.05;2.92;;;20.00;72.10;;;;;;5095858;28;19915;-69
2021/08/05 01:13:36;;;;;;;4.00;2.58;;;20.00;72.20;;;;;;5094229;28;20610;-69
2021/08/05 01:16:08;;;;;;;4.15;2.28;;;19.90;72.20;;;;;;5094447;28;20055;-69
2021/08/05 01:18:37;;;;;;;3.97;2.20;;;19.80;72.00;;;;;;5092001;28;20034;-69
2021/08/05 01:21:20;;;;;;;4.55;2.20;;;19.80;71.90;;;;;;5093565;28;20503;-69
2021/08/05 01:24:01;;;;;;;4.18;2.28;;;19.80;72.10;;;;;;5089261;28;20032;-69
2021/08/05 01:26:41;;;;;;;3.72;2.72;;;19.70;72.20;;;;;;5095398;28;20090;-70
2021/08/05 01:29:08;;;;;;;4.18;3.03;;;19.70;72.50;;;;;;5090009;28;20115;-69
2021/08/05 01:31:34;;;;;;;4.05;2.83;;;19.60;72.90;;;;;;5093803;28;20480;-69
2021/08/05 01:34:00;;;;;;;4.22;2.78;;;19.60;73.90;;;;;;5095004;28;20031;-69
2021/08/05 01:36:28;;;;;;;5.57;2.70;;;19.60;73.20;;;;;;5093475;28;20506;-69
2021/08/05 01:38:56;;;;;;;4.00;2.60;;;19.60;73.80;;;;;;5094056;28;20032;-69
2021/08/05 01:41:22;;;;;;;3.67;2.58;;;19.60;73.30;;;;;;5094138;28;20058;-69
2021/08/05 01:43:49;;;;;;;6.07;2.88;;;19.50;73.30;;;;;;5094085;28;20028;-69
2021/08/05 01:46:19;;;;;;;4.05;2.83;;;19.50;73.30;;;;;;5094880;28;20484;-69
2021/08/05 01:48:47;;;;;;;4.80;2.90;;;19.50;73.20;;;;;;5093453;28;20023;-69
2021/08/05 01:51:14;;;;;;;4.13;2.58;;;19.60;73.30;;;;;;5094329;28;20024;-69
2021/08/05 01:53:40;;;;;;;4.13;2.70;;;19.50;73.40;;;;;;5093225;28;20031;-69
2021/08/05 01:56:06;;;;;;;6.43;3.20;;;19.50;73.40;;;;;;5091632;28;20027;-69
2021/08/05 01:58:32;;;;;;;5.50;2.50;;;19.50;73.70;;;;;;5093506;28;20409;-69
2021/08/05 02:00:57;;;;;;;5.93;2.75;;;19.40;73.90;;;;;;5092278;28;20601;-69
2021/08/05 02:03:23;;;;;;;4.15;2.35;;;19.40;74.00;;;;;;5093631;28;20043;-69
2021/08/05 02:06:10;;;;;;;10.20;2.30;;;19.40;73.90;;;;;;5094319;28;20024;-69
2021/08/05 02:08:53;;;;;;;6.28;2.30;;;19.40;73.70;;;;;;5081619;28;20032;-69
2021/08/05 02:11:32;;;;;;;3.28;2.40;;;19.40;73.50;;;;;;5091265;28;20098;-69
2021/08/05 02:14:01;;;;;;;10.18;2.22;;;19.40;73.20;;;;;;5093730;28;20056;-69
2021/08/05 02:16:29;;;;;;;4.60;1.80;;;19.30;72.90;;;;;;5092490;28;20028;-69
2021/08/05 02:18:56;;;;;;;5.22;2.00;;;19.30;72.70;;;;;;5092512;28;20027;-69
2021/08/05 02:21:23;;;;;;;3.80;2.60;;;19.30;72.60;;;;;;5092378;28;20495;-69
2021/08/05 02:23:51;;;;;;;8.48;2.60;;;19.30;73.00;;;;;;5093689;28;20028;-69
2021/08/05 02:26:19;;;;;;;6.50;2.85;;;19.20;73.40;;;;;;5093553;28;20035;-69
2021/08/05 02:28:47;;;;;;;3.53;2.63;;;19.20;73.70;;;;;;5086753;28;20074;-69
2021/08/05 02:31:13;;;;;;;7.53;2.90;;;19.30;73.90;;;;;;5092941;28;20021;-69
2021/08/05 02:33:41;;;;;;;4.65;2.92;;;19.20;74.00;;;;;;5091998;28;20050;-69
2021/08/05 02:36:07;;;;;;;5.82;2.80;;;19.20;74.10;;;;;;5093285;28;20032;-69
2021/08/05 02:38:33;;;;;;;4.97;2.80;;;19.20;74.20;;;;;;5092292;28;20028;-69
2021/08/05 02:41:00;;;;;;;4.47;2.92;;;19.10;74.30;;;;;;5093107;28;20085;-69
2021/08/05 02:43:28;;;;;;;4.50;2.38;;;19.10;74.40;;;;;;5092417;28;20070;-69
2021/08/05 02:45:57;;;;;;;20.17;3.30;;;19.00;74.40;;;;;;5085601;28;20023;-69
2021/08/05 02:48:24;;;;;;;3.58;2.63;;;19.00;74.50;;;;;;5079716;28;20050;-69
2021/08/05 02:50:53;;;;;;;3.60;2.47;;;19.00;74.80;;;;;;5083693;28;20475;-69
2021/08/05 02:53:18;;;;;;;3.90;2.90;;;19.00;74.90;;;;;;5093081;28;20084;-69
2021/08/05 02:55:45;;;;;;;4.68;3.13;;;19.00;75.20;;;;;;5093244;28;20035;-69
2021/08/05 02:58:12;;;;;;;6.90;3.95;;;18.90;75.40;;;;;;5093703;28;20028;-69
2021/08/05 03:00:38;;;;;;;5.53;2.60;;;18.90;75.70;;;;;;5091226;28;20062;-69
2021/08/05 03:03:05;;;;;;;6.40;3.17;;;18.90;76.00;;;;;;5089497;28;20115;-69
2021/08/05 03:05:30;;;;;;;8.05;3.28;;;18.80;76.20;;;;;;5092115;28;20613;-69
2021/08/05 03:07:56;;;;;;;8.25;3.53;;;18.90;76.50;;;;;;5091936;28;20111;-69
2021/08/05 03:10:22;;;;;;;6.28;3.35;;;18.80;76.70;;;;;;5093184;28;20034;-69
2021/08/05 03:12:48;;;;;;;4.22;3.10;;;18.80;76.90;;;;;;5092773;28;20040;-69
2021/08/05 03:15:14;;;;;;;3.85;2.92;;;18.80;76.80;;;;;;5092335;28;20024;-69
2021/08/05 03:17:39;;;;;;;4.68;3.00;;;18.80;76.40;;;;;;5093420;28;20118;-69
2021/08/05 03:20:07;;;;;;;5.65;3.20;;;18.80;76.10;;;;;;5092426;28;20028;-69
2021/08/05 03:22:33;;;;;;;5.05;3.13;;;18.80;75.90;;;;;;5092333;28;20448;-69
2021/08/05 03:24:58;;;;;;;3.90;2.80;;;18.70;75.70;;;;;;5093024;28;20107;-70
2021/08/05 03:27:24;;;;;;;4.93;2.92;;;18.70;75.60;;;;;;5092672;28;20028;-69
2021/08/05 03:29:49;;;;;;;6.40;3.22;;;18.70;75.70;;;;;;5092340;28;20024;-69
2021/08/05 03:32:15;;;;;;;6.72;3.10;;;18.70;75.60;;;;;;5092305;28;20468;-69
2021/08/05 03:34:41;;;;;;;6.28;3.47;;;18.70;75.60;;;;;;5092334;28;20081;-69
2021/08/05 03:37:06;;;;;;;4.35;3.17;;;18.70;75.60;;;;;;5091737;28;20036;-69
2021/08/05 03:39:33;;;;;;;8.27;3.58;;;18.70;75.70;;;;;;5093072;28;20034;-69
2021/08/05 03:41:59;;;;;;;9.95;3.67;;;18.60;75.70;;;;;;5090979;28;20043;-69
2021/08/05 03:44:25;;;;;;;5.60;3.75;;;18.60;75.70;;;;;;5092680;28;20032;-69
2021/08/05 03:46:50;;;;;;;6.72;3.75;;;18.60;75.80;;;;;;5092544;28;20032;-69
2021/08/05 03:49:16;;;;;;;6.88;4.22;;;18.60;75.90;;;;;;5091183;28;20032;-69
2021/08/05 03:51:42;;;;;;;7.75;4.70;;;18.50;76.00;;;;;;5092621;28;20024;-69
2021/08/05 03:54:08;;;;;;;5.28;3.88;;;18.50;76.50;;;;;;5091960;28;20395;-69
2021/08/05 03:56:34;;;;;;;4.43;3.22;;;18.60;76.40;;;;;;5091958;28;20047;-69
2021/08/05 03:59:01;;;;;;;9.15;3.55;;;18.50;76.20;;;;;;5092148;28;20059;-69
2021/08/05 04:01:27;;;;;;;5.38;3.30;;;18.60;76.10;;;;;;5089480;28;20040;-69
2021/08/05 04:03:52;;;;;;;6.60;3.88;;;18.50;76.20;;;;;;5092144;28;20097;-69
2021/08/05 04:06:18;;;;;;;7.63;3.63;;;18.50;76.10;;;;;;5091549;28;20027;-69
2021/08/05 04:08:44;;;;;;;5.57;3.45;;;18.50;76.10;;;;;;5092434;28;20039;-70
2021/08/05 04:11:09;;;;;;;6.13;3.70;;;18.40;76.10;;;;;;5091072;28;20455;-70
2021/08/05 04:13:35;;;;;;;5.50;3.90;;;18.50;76.30;;;;;;5091454;28;20048;-70
2021/08/05 04:16:01;;;;;;;8.27;4.40;;;18.40;76.50;;;;;;5091978;28;20038;-69
2021/08/05 04:18:26;;;;;;;5.20;3.42;;;18.40;76.70;;;;;;5091116;28;20024;-68
2021/08/05 04:20:52;;;;;;;7.40;3.58;;;18.40;76.60;;;;;;5092256;28;20035;-68
2021/08/05 04:23:17;;;;;;;4.70;2.85;;;18.40;76.50;;;;;;5091230;28;20036;-68
2021/08/05 04:25:44;;;;;;;6.53;3.70;;;18.30;76.30;;;;;;5091152;28;20024;-68
2021/08/05 04:28:10;;;;;;;7.75;3.47;;;18.40;76.30;;;;;;5091602;28;20118;-68
2021/08/05 04:30:36;;;;;;;7.35;4.05;;;18.40;76.20;;;;;;5091747;28;20128;-67
2021/08/05 04:33:02;;;;;;;6.53;3.75;;;18.30;76.30;;;;;;5090687;28;20028;-68
2021/08/05 04:35:27;;;;;;;5.60;4.13;;;18.30;76.20;;;;;;5091891;28;20032;-68
2021/08/05 04:37:58;;;;;;;8.27;4.13;;;18.30;76.30;;;;;;5090522;28;20036;-67
2021/08/05 04:40:26;;;;;;;5.53;3.55;;;18.30;76.30;;;;;;5089355;28;20024;-68
2021/08/05 04:42:52;;;;;;;8.85;4.32;;;18.20;76.30;;;;;;5092105;28;20044;-68
2021/08/05 04:45:18;;;;;;;8.05;4.50;;;18.20;76.50;;;;;;5090069;28;20043;-69
2021/08/05 04:48:02;;;;;;;10.10;4.80;;;18.20;76.90;;;;;;5091166;28;20028;-67
2021/08/05 04:50:29;;;;;;;;;;;18.10;77.10;;;;;;5091503;28;20048;-68
2021/08/05 04:52:55;;;;;;;7.68;4.90;;;18.10;76.90;;;;;;5090871;28;19915;-68
2021/08/05 04:55:21;;;;;;;13.88;5.65;;;18.10;77.40;;;;;;5087619;28;20387;-68
2021/08/05 04:57:47;;;;;;;6.63;5.03;;;18.10;77.80;;;;;;5091465;28;20028;-67
2021/08/05 05:00:14;;;;;;;9.38;4.68;;;18.10;78.20;;;;;;5090121;28;20031;-67
2021/08/05 05:02:40;;;;;;;6.78;4.97;;;18.10;78.40;;;;;;5090974;28;20032;-68
2021/08/05 05:05:05;;;;;;;12.15;4.43;;;18.00;78.60;;;;;;5091481;28;20486;-68
2021/08/05 05:07:31;;;;;;;11.77;4.55;;;18.10;78.80;;;;;;5090032;28;20033;-68
2021/08/05 05:09:57;;;;;;;7.32;4.85;;;18.10;78.80;;;;;;5091772;28;20116;-68
2021/08/05 05:12:22;;;;;;;5.93;4.25;;;18.10;78.80;;;;;;5091052;28;20058;-68
2021/08/05 05:14:48;;;;;;;8.25;4.75;;;18.10;78.80;;;;;;5091117;28;20040;-68
2021/08/05 05:17:16;;;;;;;9.88;5.55;;;18.10;79.10;;;;;;5091375;28;20125;-68
2021/08/05 05:19:42;;;;;;;8.43;5.68;;;18.10;79.50;;;;;;5091241;28;20055;-68
2021/08/05 05:22:08;;;;;;;9.98;5.85;;;18.10;79.90;;;;;;5089912;28;20064;-68
2021/08/05 05:24:34;;;;;;;9.40;5.97;;;18.10;80.30;;;;;;5090230;28;20497;-68
2021/08/05 05:27:00;;;;;;;11.63;6.32;;;18.10;80.70;;;;;;5091327;28;20093;-68
2021/08/05 05:29:25;;;;;;;10.40;6.78;;;18.10;81.10;;;;;;5087121;28;20483;-68
2021/08/05 05:31:54;;;;;;;18.33;7.80;;;18.10;81.40;;;;;;5091127;28;20459;-68
2021/08/05 05:34:20;;;;;;;11.00;7.57;;;18.10;81.70;;;;;;5089823;28;20032;-68
2021/08/05 05:36:47;;;;;;;11.45;7.85;;;18.20;82.20;;;;;;5089649;28;20046;-68
2021/08/05 05:39:15;;;;;;;11.60;7.85;;;18.10;82.40;;;;;;5090337;28;20021;-68
2021/08/05 05:41:41;;;;;;;12.85;8.48;;;18.20;82.70;;;;;;5090156;28;20032;-69
2021/08/05 05:44:07;;;;;;;13.02;8.77;;;18.20;83.00;;;;;;5090174;28;20032;-70
2021/08/05 05:46:32;;;;;;;15.73;9.30;;;18.20;83.30;;;;;;5091011;28;20024;-70
2021/08/05 05:48:58;;;;;;;15.27;8.85;;;18.30;83.40;;;;;;5090412;28;20032;-70
2021/08/05 05:51:24;;;;;;;13.20;8.90;;;18.30;83.30;;;;;;5094175;28;20039;-71
2021/08/05 05:53:49;;;;;;;13.50;9.45;;;18.40;83.30;;;;;;5094327;28;20036;-68
2021/08/05 05:56:15;;;;;;;14.13;9.05;;;18.40;83.50;;;;;;5094185;28;20020;-68
2021/08/05 05:58:41;;;;;;;17.52;9.50;;;18.40;83.20;;;;;;5093510;28;20395;-68
2021/08/05 06:01:06;;;;;;;15.13;9.00;;;18.50;83.10;;;;;;5094391;28;20024;-68
2021/08/05 06:03:32;;;;;;;14.32;9.23;;;18.50;83.50;;;;;;5093658;28;20055;-68
2021/08/05 06:05:57;;;;;;;14.15;9.75;;;18.50;83.80;;;;;;5094154;28;20036;-68
2021/08/05 06:08:23;;;;;;;16.15;8.85;;;18.50;83.90;;;;;;5093901;28;20028;-69
2021/08/05 06:10:49;;;;;;;13.82;8.55;;;18.60;83.80;;;;;;5093492;28;20405;-69
2021/08/05 06:13:15;;;;;;;15.65;9.68;;;18.70;83.50;;;;;;5092901;28;20446;-69
2021/08/05 06:15:40;;;;;;;14.27;9.50;;;18.70;83.70;;;;;;5094495;28;20103;-69
2021/08/05 06:18:06;;;;;;;15.95;9.57;;;18.70;84.00;;;;;;5093463;28;20431;-70
2021/08/05 06:20:32;;;;;;;16.35;10.00;;;18.80;83.90;;;;;;5093833;28;20563;-70
2021/08/05 06:22:57;;;;;;;13.32;8.45;;;18.80;84.40;;;;;;5094552;28;20055;-69
2021/08/05 06:25:23;;;;;;;11.40;7.43;;;18.90;84.10;;;;;;5092626;28;20122;-71
2021/08/05 06:27:49;;;;;;;12.48;8.55;;;18.90;84.50;;;;;;5093645;28;20039;-73
2021/08/05 06:30:16;;;;;;;14.70;9.10;;;19.00;84.60;;;;;;5093431;28;20028;-70
2021/08/05 06:32:44;;;;;;;11.65;7.07;;;19.00;84.70;;;;;;5093402;28;20039;-71
2021/08/05 06:35:10;;;;;;;12.93;7.80;;;19.10;84.60;;;;;;5091245;28;20039;-71
2021/08/05 06:37:36;;;;;;;16.25;7.72;;;19.10;84.40;;;;;;5091434;28;20028;-71
2021/08/05 06:40:06;;;;;;;12.85;8.30;;;19.20;84.80;;;;;;5092276;28;20111;-71
2021/08/05 06:42:35;;;;;;;11.82;7.05;;;19.30;85.00;;;;;;5093522;28;20044;-71
2021/08/05 06:45:02;;;;;;;12.90;8.07;;;19.30;84.40;;;;;;5092356;28;20032;-71
2021/08/05 06:47:29;;;;;;;12.02;8.07;;;19.30;84.30;;;;;;5092241;28;20077;-71
2021/08/05 06:49:56;;;;;;;10.65;7.07;;;19.40;84.30;;;;;;5093146;28;20437;-71
2021/08/05 06:52:22;;;;;;;12.52;7.35;;;19.40;84.20;;;;;;5091442;28;20048;-71
2021/08/05 06:54:48;;;;;;;12.88;7.03;;;19.50;83.80;;;;;;5090991;28;20033;-71
2021/08/05 06:57:13;;;;;;;11.40;7.82;;;19.50;83.50;;;;;;5092414;28;20028;-71
2021/08/05 06:59:39;;;;;;;14.13;7.05;;;19.60;83.80;;;;;;5092256;28;20028;-71
2021/08/05 07:02:05;;;;;;;13.50;7.32;;;19.60;84.00;;;;;;5092618;28;20059;-71
2021/08/05 07:04:30;;;;;;;10.25;6.70;;;19.70;84.20;;;;;;5091251;28;20035;-70
2021/08/05 07:06:56;;;;;;;9.82;5.85;;;19.70;84.00;;;;;;5091200;28;20109;-71
2021/08/05 07:09:22;;;;;;;8.02;5.15;;;19.80;83.70;;;;;;5091436;28;20024;-71
2021/08/05 07:11:47;;;;;;;7.18;4.90;;;19.80;83.30;;;;;;5091445;28;20074;-71
2021/08/05 07:14:13;;;;;;;10.18;4.72;;;19.80;83.60;;;;;;5090782;28;20502;-71
2021/08/05 07:16:39;;;;;;;9.57;4.78;;;19.90;83.40;;;;;;5091717;28;20543;-71
2021/08/05 07:19:04;;;;;;;8.48;5.35;;;20.00;83.40;;;;;;5091741;28;20043;-71
2021/08/05 07:21:30;;;;;;;8.85;5.43;;;20.00;82.40;;;;;;5090429;28;20032;-71
2021/08/05 07:23:56;;;;;;;9.82;5.40;;;20.00;82.70;;;;;;5091405;28;20361;-71
2021/08/05 07:26:22;;;;;;;7.50;4.90;;;20.10;82.90;;;;;;5090990;28;20487;-71
2021/08/05 07:28:48;;;;;;;6.40;4.80;;;20.20;83.20;;;;;;5090626;28;20111;-71
2021/08/05 07:31:14;;;;;;;8.95;5.47;;;20.20;83.30;;;;;;5091407;28;20024;-71
2021/08/05 07:33:40;;;;;;;5.82;4.40;;;20.30;82.00;;;;;;5090551;28;20470;-71
2021/08/05 07:36:06;;;;;;;7.15;4.05;;;20.30;81.20;;;;;;5090529;28;20032;-71
2021/08/05 07:38:31;;;;;;;7.18;3.70;;;20.40;81.00;;;;;;5090472;28;20471;-72
2021/08/05 07:40:57;;;;;;;5.25;3.65;;;20.50;80.10;;;;;;5090375;28;20028;-71
2021/08/05 07:43:23;;;;;;;11.57;4.15;;;20.50;80.00;;;;;;5090496;28;20034;-72
2021/08/05 07:45:48;;;;;;;11.13;3.65;;;20.50;79.60;;;;;;5090805;28;20463;-71
2021/08/05 07:48:15;;;;;;;5.88;3.22;;;20.60;79.10;;;;;;5089611;28;20495;-75
2021/08/05 07:50:40;;;;;;;6.30;3.17;;;20.70;79.30;;;;;;5090786;28;20024;-73
2021/08/05 07:53:06;;;;;;;6.97;4.07;;;20.70;79.10;;;;;;5090712;28;20024;-77
2021/08/05 07:55:32;;;;;;;8.15;3.90;;;20.80;80.20;;;;;;5087953;28;20088;-73
2021/08/05 07:57:58;;;;;;;6.95;3.72;;;20.80;79.80;;;;;;5090604;28;20038;-72
2021/08/05 08:00:24;;;;;;;8.80;4.00;;;20.90;79.90;;;;;;5090565;28;20114;-74
2021/08/05 08:02:49;;;;;;;4.82;2.90;;;20.90;79.50;;;;;;5089595;28;20048;-73
2021/08/05 08:05:15;;;;;;;5.72;3.65;;;21.00;79.30;;;;;;5091357;28;20020;-74
2021/08/05 08:07:42;;;;;;;5.78;3.20;;;21.10;78.70;;;;;;5091276;28;20464;-73
2021/08/05 08:10:09;;;;;;;8.75;4.20;;;21.20;78.50;;;;;;5091862;28;20043;-72
2021/08/05 08:12:35;;;;;;;5.22;3.50;;;21.10;78.60;;;;;;5089800;28;20028;-72
2021/08/05 08:15:01;;;;;;;7.15;3.50;;;21.20;78.90;;;;;;5091020;28;20081;-73
2021/08/05 08:17:27;;;;;;;4.78;3.08;;;21.30;79.20;;;;;;5090662;28;20032;-76
2021/08/05 08:19:52;;;;;;;5.63;3.55;;;21.30;78.90;;;;;;5091026;28;20043;-73
2021/08/05 08:22:18;;;;;;;4.50;2.85;;;21.30;78.80;;;;;;5091246;28;20453;-72
2021/08/05 08:24:44;;;;;;;8.98;3.10;;;21.40;78.70;;;;;;5090415;28;20024;-72
2021/08/05 08:27:09;;;;;;;6.25;4.15;;;21.40;78.30;;;;;;5091430;28;20107;-72
2021/08/05 08:29:35;;;;;;;8.20;4.97;;;21.40;78.20;;;;;;5091165;28;20024;-72
2021/08/05 08:32:01;;;;;;;6.03;3.75;;;21.50;78.30;;;;;;5089464;28;20027;-72
2021/08/05 08:34:27;;;;;;;9.32;3.75;;;21.50;78.10;;;;;;5090612;28;20036;-71
2021/08/05 08:36:56;;;;;;;6.63;3.25;;;21.50;77.70;;;;;;5086615;28;20056;-73
2021/08/05 08:39:23;;;;;;;3.85;2.03;;;21.60;77.70;;;;;;5090724;28;20429;-71
2021/08/05 08:41:49;;;;;;;3.70;2.13;;;21.60;77.20;;;;;;5090036;28;20070;-71
2021/08/05 08:44:15;;;;;;;7.00;2.97;;;21.60;77.00;;;;;;5090026;28;20476;-75
2021/08/05 08:46:44;;;;;;;7.47;2.53;;;21.70;77.50;;;;;;5090626;28;20067;-82
2021/08/05 08:49:10;;;;;;;4.75;2.40;;;21.70;77.00;;;;;;5090052;28;20020;-73
2021/08/05 08:51:36;;;;;;;4.45;2.70;;;21.70;76.80;;;;;;5090788;28;20039;-74
2021/08/05 08:54:06;;;;;;;4.30;2.45;;;21.70;76.70;;;;;;5089037;28;20043;-74
2021/08/05 08:56:33;;;;;;;3.83;2.50;;;21.80;76.60;;;;;;5090642;28;20028;-73
2021/08/05 08:59:00;;;;;;;6.10;3.00;;;21.80;76.40;;;;;;5089493;28;20035;-73
2021/08/05 09:01:26;;;;;;;6.07;3.22;;;21.80;76.40;;;;;;5089715;28;20035;-74
2021/08/05 09:03:52;;;;;;;4.32;2.63;;;21.90;76.40;;;;;;5090066;28;20399;-74
2021/08/05 09:06:18;;;;;;;8.18;3.30;;;21.90;76.60;;;;;;5088730;28;20024;-73
2021/08/05 09:08:44;;;;;;;6.32;3.45;;;22.00;76.70;;;;;;5089160;28;20035;-73
2021/08/05 09:11:10;;;;;;;7.38;3.28;;;22.00;76.70;;;;;;5090094;28;20040;-74
2021/08/05 09:13:36;;;;;;;6.30;3.50;;;22.00;77.20;;;;;;5088861;28;20077;-74
2021/08/05 09:16:02;;;;;;;7.35;3.40;;;22.10;77.10;;;;;;5090035;28;20070;-74
2021/08/05 09:18:41;;;;;;;6.57;2.67;;;22.10;76.70;;;;;;5089738;28;20434;-75
2021/08/05 09:21:11;;;;;;;2.92;2.22;;;22.10;76.60;;;;;;5089320;28;20028;-74
2021/08/05 09:23:53;;;;;;;8.68;2.90;;;22.10;76.00;;;;;;5090375;28;20047;-74
2021/08/05 09:26:39;;;;;;;7.00;3.20;;;22.20;76.00;;;;;;5091973;28;20028;-75
2021/08/05 09:29:14;;;;;;;6.35;3.30;;;22.30;76.30;;;;;;5092574;28;20035;-74
2021/08/05 09:31:40;;;;;;;4.22;2.63;;;22.30;76.10;;;;;;5094273;28;20032;-72
2021/08/05 09:34:11;;;;;;;4.38;2.47;;;22.30;75.90;;;;;;5092552;28;20092;-72
2021/08/05 09:36:39;;;;;;;4.10;2.72;;;22.40;75.70;;;;;;5092821;28;20115;-72
2021/08/05 09:39:22;;;;;;;4.90;2.63;;;22.40;75.60;;;;;;5093013;28;20551;-73
2021/08/05 09:42:04;;;;;;;3.77;2.97;;;22.40;75.30;;;;;;5089678;28;20042;-73
2021/08/05 09:44:46;;;;;;;4.88;2.88;;;22.50;75.70;;;;;;5091127;28;20288;-78
2021/08/05 09:47:17;;;;;;;3.72;3.08;;;22.50;75.30;;;;;;5088713;28;20421;-72
2021/08/05 09:49:46;;;;;;;3.80;2.38;;;22.50;75.30;;;;;;5092754;28;20044;-73
2021/08/05 09:52:15;;;;;;;4.88;2.88;;;22.60;75.10;;;;;;5092960;28;20024;-73
2021/08/05 09:54:51;;;;;;;5.30;2.33;;;22.60;75.00;;;;;;5091827;28;20535;-72
2021/08/05 09:57:30;;;;;;;4.03;2.67;;;22.70;74.50;;;;;;5091601;28;20028;-73
2021/08/05 10:00:16;;;;;;;5.70;3.40;;;22.70;74.70;;;;;;5093957;28;20032;-73
2021/08/05 10:02:46;;;;;;;3.65;2.92;;;22.80;75.70;;;;;;5092025;28;20036;-73
2021/08/05 10:05:16;;;;;;;4.72;2.80;;;22.80;74.30;;;;;;5094511;28;20050;-73
2021/08/05 10:07:44;;;;;;;4.32;2.70;;;22.90;74.00;;;;;;5093889;28;20028;-73
2021/08/05 10:10:10;;;;;;;3.85;2.40;;;22.90;73.90;;;;;;5093293;28;20468;-71
2021/08/05 10:12:38;;;;;;;4.80;2.60;;;22.90;73.90;;;;;;5093372;28;20433;-71
2021/08/05 10:15:08;;;;;;;9.45;2.95;;;23.00;73.60;;;;;;5083130;28;20475;-71
2021/08/05 10:17:36;;;;;;;5.07;3.05;;;23.10;73.40;;;;;;5093699;28;20479;-71
2021/08/05 10:20:07;;;;;;;3.65;2.67;;;23.10;73.20;;;;;;5093767;28;20099;-71
2021/08/05 10:22:34;;;;;;;5.20;2.58;;;23.10;73.10;;;;;;5093484;28;20040;-72
2021/08/05 10:25:00;;;;;;;4.93;2.50;;;23.10;73.40;;;;;;5093545;28;20439;-72
2021/08/05 10:27:27;;;;;;;4.20;2.80;;;23.20;73.50;;;;;;5093914;28;20106;-71
2021/08/05 10:29:53;;;;;;;5.78;2.78;;;23.20;73.10;;;;;;5091587;28;20032;-72
2021/08/05 10:32:20;;;;;;;4.05;2.60;;;23.20;73.10;;;;;;5094017;28;20050;-70
2021/08/05 10:34:46;;;;;;;5.07;3.03;;;23.30;73.10;;;;;;5093331;28;20020;-71
2021/08/05 10:37:13;;;;;;;8.90;2.97;;;23.30;73.10;;;;;;5090656;28;20028;-71
2021/08/05 10:39:41;;;;;;;8.20;3.05;;;23.30;73.20;;;;;;5090630;28;20081;-72
2021/08/05 10:42:10;;;;;;;5.90;3.72;;;23.40;73.30;;;;;;5090800;28;20032;-72
2021/08/05 10:44:38;;;;;;;6.97;3.38;;;23.40;73.40;;;;;;5091779;28;20039;-71
2021/08/05 10:47:05;;;;;;;7.47;3.00;;;23.40;73.40;;;;;;5091623;28;20392;-71
2021/08/05 10:49:33;;;;;;;4.95;3.65;;;23.50;73.30;;;;;;5092196;28;20039;-71
2021/08/05 10:51:59;;;;;;;6.03;3.97;;;23.50;73.60;;;;;;5091446;28;20166;-71
2021/08/05 10:54:53;;;;;;;6.88;4.40;;;23.60;73.80;;;;;;5089608;28;20467;-71
2021/08/05 10:57:20;;;;;;;6.50;4.45;;;23.60;73.90;;;;;;5091751;28;20059;-76
2021/08/05 11:00:03;;;;;;;7.68;3.53;;;23.70;73.60;;;;;;5090642;28;20483;-72
2021/08/05 11:02:54;;;;;;;3.90;3.05;;;23.70;73.20;;;;;;5091871;28;20482;-78
2021/08/05 11:05:23;;;;;;;6.22;3.78;;;23.70;73.30;;;;;;5089997;28;20032;-77
2021/08/05 11:07:51;;;;;;;7.38;4.68;;;23.80;72.90;;;;;;5089408;28;20032;-76
2021/08/05 11:10:25;;;;;;;6.00;3.58;;;23.80;72.60;;;;;;5091658;28;20024;-75
2021/08/05 11:12:52;;;;;;;11.65;4.32;;;23.90;73.10;;;;;;5088499;28;20044;-73
2021/08/05 11:15:38;;;;;;;8.23;4.43;;;23.90;72.90;;;;;;5091516;28;20028;-73
2021/08/05 11:18:16;;;;;;;7.57;3.90;;;24.00;72.80;;;;;;5090728;28;20708;-73
2021/08/05 11:21:13;;;;;;;7.38;3.70;;;24.00;72.20;;;;;;5090656;28;20128;-73
2021/08/05 11:23:40;;;;;;;9.45;4.10;;;24.10;73.00;;;;;;5089571;28;20040;-73
2021/08/05 11:26:06;;;;;;;4.85;3.50;;;24.10;72.50;;;;;;5090489;28;20024;-73
2021/08/05 11:28:52;;;;;;;4.85;3.45;;;24.20;72.80;;;;;;5091575;28;20039;-73
2021/08/05 11:31:22;;;;;;;3.05;2.25;;;24.20;72.20;;;;;;5088547;28;20031;-73
2021/08/05 11:33:55;;;;;;;5.75;2.60;;;24.20;71.50;;;;;;5090712;28;20440;-73
2021/08/05 11:36:29;;;;;;;8.07;2.80;;;24.30;71.00;;;;;;5087873;28;20521;-73
2021/08/05 11:39:11;;;;;;;5.15;3.08;;;24.30;70.80;;;;;;5092175;28;20032;-73
2021/08/05 11:42:15;;;;;;;5.10;3.20;;;24.30;70.40;;;;;;5091741;28;20024;-73
2021/08/05 11:44:45;;;;;;;11.80;3.47;;;24.40;70.50;;;;;;5083665;28;20119;-72
2021/08/05 11:47:30;;;;;;;9.88;3.80;;;24.40;69.90;;;;;;5091036;28;20147;-74
2021/08/05 11:50:03;;;;;;;6.25;2.75;;;24.60;69.90;;;;;;5085190;28;20518;-73
2021/08/05 11:52:29;;;;;;;;;;;24.60;69.80;;;;;;5092135;28;20036;-73
2021/08/05 11:55:05;;;;;;;5.53;2.15;;;24.60;71.20;;;;;;5090220;28;19915;-78
2021/08/05 11:57:58;;;;;;;4.03;2.30;;;24.60;69.90;;;;;;5092458;28;20039;-75
2021/08/05 12:00:29;;;;;;;8.07;2.55;;;24.70;69.50;;;;;;5090206;28;20120;-73
2021/08/05 12:03:12;;;;;;;11.77;2.10;;;24.70;69.10;;;;;;5090780;28;20119;-73
2021/08/05 12:05:45;;;;;;;;;;;24.80;68.20;;;;;;5086195;28;20146;-73
2021/08/05 12:08:19;;;;;;;2.83;1.80;;;24.70;69.40;;;;;;5084519;28;20267;-73
2021/08/05 12:10:45;;;;;;;3.22;1.83;;;24.80;68.40;;;;;;5085797;28;20813;-73
2021/08/05 12:13:22;;;;;;;4.30;2.10;;;24.90;68.20;;;;;;5090342;28;20510;-72
2021/08/05 12:15:52;;;;;;;4.55;2.85;;;24.90;67.90;;;;;;5084266;28;20081;-74
2021/08/05 12:18:23;;;;;;;4.38;2.22;;;25.00;67.00;;;;;;5090304;28;20028;-71
2021/08/05 12:21:01;;;;;;;4.65;2.33;;;25.00;67.00;;;;;;5091229;28;20024;-75
2021/08/05 12:28:33;;;;;;;4.55;2.90;;;25.10;66.70;;;;;;5086574;28;20039;-71
2021/08/05 12:31:01;;;;;;;4.18;2.63;;;25.20;66.30;;;;;;5089697;28;20039;-72
2021/08/05 12:33:29;;;;;;;4.10;2.72;;;25.20;65.80;;;;;;5089554;28;20115;-72
2021/08/05 12:36:09;;;;;;;4.30;2.65;;;25.20;66.30;;;;;;5090435;28;20032;-72
2021/08/05 12:38:48;;;;;;;6.75;2.50;;;25.40;66.40;;;;;;5087652;28;20039;-77
2021/08/05 12:41:37;;;;;;;2.30;1.90;;;25.40;66.90;;;;;;5089768;28;20135;-72
2021/08/05 12:44:12;;;;;;;4.22;2.40;;;25.40;67.20;;;;;;5081702;28;20039;-72
2021/08/05 12:46:42;;;;;;;6.57;2.13;;;25.50;66.50;;;;;;5088604;28;20039;-72
2021/08/05 12:49:08;;;;;;;3.60;2.03;;;25.50;65.50;;;;;;5087309;28;20032;-72
2021/08/05 12:51:34;;;;;;;4.65;2.13;;;25.60;65.70;;;;;;5088027;28;20028;-72
2021/08/05 12:54:12;;;;;;;4.10;2.08;;;25.50;65.50;;;;;;5088294;28;20024;-71
2021/08/05 12:56:40;;;;;;;3.53;1.95;;;25.60;65.60;;;;;;5085888;28;20445;-72
2021/08/05 12:59:05;;;;;;;3.92;2.13;;;25.60;65.70;;;;;;5090794;28;20531;-72